Longworth, Texas
Current Conditions -  °F | °C
As of 12:15 AM on Sunday 23 Nov 2014 (Local Time) from KSWW Reporting Station
Clear Clear  
Wind Chill: 52°   Ceiling: Unl
Heat Index: 52°   Visibility: 5mi
Dew Point: 52°   Wind: 10mph
Humidity: 100%   Direction: 180°S
Pressure: 29.74"   Gusts: NA
Location:  32.6787°N, 100.492°W
Report Text: KSWW 230615Z AUTO 18009KT 5SM CLR 11/11 A2974 RMK AO2 T01100110
Loading
Personal Weather Stations






























Interactive Weather Map New forecast layout! Learn more

10-Day Weather Forecast

Advertisements
Track Severe Weather on mobile